Time;durP1;ratioP1;P1;durP2;ratioP2;P2;SDS_P1;SDS_P2;PMS_P1;PMS_P2;Temp;Humidity;BMP_temperature;BMP_pressure;BME280_temperature;BME280_humidity;BME280_pressure;Samples;Min_cycle;Max_cycle;Signal;HPM_P1;HPM_P2
2022/06/19 05:00:41;;;;;;;15.10;5.00;;;24.00;97.20;;;;;;1727867;28;20254;-71
2022/06/19 05:01:33;;;;;;;11.13;4.63;;;24.00;97.20;;;;;;1728486;28;20621;-71
2022/06/19 05:02:25;;;;;;;14.77;4.10;;;24.00;97.20;;;;;;1728519;28;20200;-71
2022/06/19 05:03:17;;;;;;;12.37;5.20;;;24.00;97.20;;;;;;1728415;28;20819;-71
2022/06/19 05:04:11;;;;;;;7.43;3.83;;;24.00;97.20;;;;;;1728321;28;20489;-71
2022/06/19 05:05:03;;;;;;;8.40;4.37;;;24.00;97.20;;;;;;1728264;28;20522;-71
2022/06/19 05:05:54;;;;;;;9.57;4.47;;;24.10;97.20;;;;;;1728482;28;20447;-72
2022/06/19 05:06:45;;;;;;;14.43;4.07;;;24.10;97.20;;;;;;1728089;28;20443;-71
2022/06/19 05:07:37;;;;;;;11.17;5.77;;;24.10;97.20;;;;;;1728422;28;20529;-72
2022/06/19 05:08:28;;;;;;;12.87;5.03;;;24.10;97.20;;;;;;1728362;28;20208;-72
2022/06/19 05:09:19;;;;;;;14.07;5.67;;;24.10;97.20;;;;;;1728327;28;20443;-71
2022/06/19 05:10:11;;;;;;;18.13;5.10;;;24.10;97.20;;;;;;1728308;28;20193;-71
2022/06/19 05:11:03;;;;;;;17.37;4.73;;;24.10;97.20;;;;;;1728287;28;20538;-71
2022/06/19 05:11:53;;;;;;;9.43;3.93;;;24.10;97.20;;;;;;1728355;28;20439;-71
2022/06/19 05:12:45;;;;;;;8.03;4.40;;;24.10;97.20;;;;;;1728339;28;20471;-71
2022/06/19 05:13:36;;;;;;;13.03;4.43;;;24.10;97.20;;;;;;1728342;28;20208;-71
2022/06/19 05:14:28;;;;;;;7.00;4.03;;;24.20;97.20;;;;;;1728274;28;20447;-72
2022/06/19 05:15:19;;;;;;;11.83;5.00;;;24.10;97.20;;;;;;1728330;28;20440;-72
2022/06/19 05:16:15;;;;;;;12.47;4.60;;;24.20;97.20;;;;;;1728330;28;20436;-72
2022/06/19 05:17:05;;;;;;;10.33;4.40;;;24.20;97.20;;;;;;1728074;28;20443;-71
2022/06/19 05:17:57;;;;;;;8.67;4.37;;;24.20;97.20;;;;;;1728209;28;20538;-72
2022/06/19 05:18:50;;;;;;;9.90;4.17;;;24.20;97.20;;;;;;1728264;28;20211;-72
2022/06/19 05:19:42;;;;;;;11.33;4.47;;;24.30;97.20;;;;;;1728299;28;20530;-72
2022/06/19 05:20:33;;;;;;;10.77;4.50;;;24.30;97.20;;;;;;1728194;28;20474;-71
2022/06/19 05:21:26;;;;;;;14.60;4.97;;;24.30;97.20;;;;;;1728327;28;20530;-71
2022/06/19 05:22:18;;;;;;;11.30;3.70;;;24.30;97.20;;;;;;1728238;28;20215;-71
2022/06/19 05:23:10;;;;;;;10.17;4.47;;;24.30;97.20;;;;;;1728239;28;20440;-72
2022/06/19 05:24:01;;;;;;;12.97;4.93;;;24.30;97.20;;;;;;1728268;28;20446;-71
2022/06/19 05:24:53;;;;;;;8.13;3.90;;;24.30;97.20;;;;;;1728220;28;20474;-71
2022/06/19 05:25:44;;;;;;;9.10;4.13;;;24.40;97.20;;;;;;1728235;28;20931;-72
2022/06/19 05:26:36;;;;;;;17.80;5.03;;;24.40;97.20;;;;;;1727906;28;20884;-71
2022/06/19 05:27:27;;;;;;;13.03;5.00;;;24.40;97.20;;;;;;1728266;28;20200;-71
2022/06/19 05:28:18;;;;;;;11.97;4.80;;;24.40;97.20;;;;;;1728074;28;20482;-71
2022/06/19 05:29:09;;;;;;;9.70;4.47;;;24.50;97.20;;;;;;1728236;28;20683;-71
2022/06/19 05:30:01;;;;;;;10.87;3.93;;;24.50;97.20;;;;;;1728234;28;20880;-72
2022/06/19 05:30:52;;;;;;;13.30;3.97;;;24.50;97.20;;;;;;1728116;28;20227;-71
2022/06/19 05:31:45;;;;;;;9.47;3.83;;;24.50;97.20;;;;;;1728194;28;20450;-71
2022/06/19 05:32:36;;;;;;;9.30;4.33;;;24.60;97.20;;;;;;1728170;28;20200;-72
2022/06/19 05:33:28;;;;;;;15.80;5.00;;;24.60;97.20;;;;;;1728194;28;20443;-71
2022/06/19 05:34:19;;;;;;;13.77;4.80;;;24.60;97.20;;;;;;1728187;28;20219;-71
2022/06/19 05:35:11;;;;;;;10.23;3.90;;;24.60;97.20;;;;;;1728114;28;20522;-72
2022/06/19 05:36:03;;;;;;;10.67;4.73;;;24.60;97.20;;;;;;1728121;28;20292;-72
2022/06/19 05:36:55;;;;;;;9.33;5.10;;;24.60;97.20;;;;;;1727965;28;20444;-72
2022/06/19 05:37:46;;;;;;;10.20;4.03;;;24.70;97.20;;;;;;1728138;28;20447;-71
2022/06/19 05:38:37;;;;;;;8.90;3.93;;;24.70;97.20;;;;;;1728174;28;20519;-72
2022/06/19 05:39:28;;;;;;;10.57;4.17;;;24.70;97.20;;;;;;1728156;28;20687;-72
2022/06/19 05:40:20;;;;;;;11.60;4.63;;;24.70;97.20;;;;;;1727998;28;20450;-72
2022/06/19 05:41:11;;;;;;;11.70;3.97;;;24.70;97.20;;;;;;1728195;28;20439;-72
2022/06/19 05:42:04;;;;;;;13.10;4.90;;;24.80;97.20;;;;;;1728117;28;20444;-71
2022/06/19 05:42:55;;;;;;;10.90;4.73;;;24.80;97.20;;;;;;1728117;28;20462;-71
2022/06/19 05:43:49;;;;;;;8.50;3.73;;;24.80;97.20;;;;;;1728078;28;20475;-71
2022/06/19 05:44:40;;;;;;;18.27;5.17;;;24.80;97.20;;;;;;1728105;28;20201;-71
2022/06/19 05:45:32;;;;;;;8.67;4.50;;;24.80;97.20;;;;;;1728192;28;20542;-71
2022/06/19 05:46:23;;;;;;;13.43;3.87;;;24.80;97.20;;;;;;1728082;28;20279;-71
2022/06/19 05:47:17;;;;;;;14.93;4.93;;;24.80;97.20;;;;;;1727762;28;20451;-72
2022/06/19 05:48:07;;;;;;;11.30;4.50;;;24.80;97.20;;;;;;1727991;28;20462;-72
2022/06/19 05:48:59;;;;;;;7.60;4.40;;;24.90;97.20;;;;;;1728131;28;20514;-71
2022/06/19 05:49:50;;;;;;;13.47;4.27;;;24.90;97.20;;;;;;1728180;28;20439;-71
2022/06/19 05:50:42;;;;;;;8.17;4.60;;;24.90;97.20;;;;;;1728089;28;20550;-71
2022/06/19 05:51:32;;;;;;;12.90;4.77;;;24.90;97.20;;;;;;1728144;28;20201;-72
2022/06/19 05:52:25;;;;;;;13.30;4.67;;;24.90;97.20;;;;;;1728025;28;20449;-72
2022/06/19 05:53:16;;;;;;;11.07;3.90;;;24.90;97.20;;;;;;1728082;28;20215;-72
2022/06/19 05:54:08;;;;;;;8.13;4.03;;;25.00;97.20;;;;;;1728020;28;20957;-71
2022/06/19 05:54:59;;;;;;;19.27;5.00;;;25.00;97.20;;;;;;1728002;28;20212;-72
2022/06/19 05:55:51;;;;;;;15.93;4.93;;;25.00;97.20;;;;;;1727979;28;20527;-72
2022/06/19 05:56:42;;;;;;;13.57;5.53;;;25.00;97.20;;;;;;1727777;28;20547;-71
2022/06/19 05:57:34;;;;;;;8.67;4.60;;;25.00;97.20;;;;;;1728121;28;20446;-72
2022/06/19 05:58:25;;;;;;;17.27;4.75;;;25.10;97.20;;;;;;1727928;28;20439;-72
2022/06/19 05:59:16;;;;;;;13.50;5.00;;;25.10;97.20;;;;;;1728111;28;20200;-71
2022/06/19 06:00:08;;;;;;;15.70;5.27;;;25.10;97.20;;;;;;1728053;28;20447;-71
2022/06/19 06:01:01;;;;;;;14.43;4.83;;;25.10;97.20;;;;;;1727554;28;20455;-72
2022/06/19 06:01:51;;;;;;;13.03;5.37;;;25.10;97.20;;;;;;1727969;28;20451;-71
2022/06/19 06:02:44;;;;;;;11.63;5.20;;;25.20;97.20;;;;;;1728017;28;20451;-72
2022/06/19 06:03:36;;;;;;;22.37;5.50;;;25.20;97.20;;;;;;1728012;28;20615;-71
2022/06/19 06:04:27;;;;;;;11.10;4.30;;;25.20;97.20;;;;;;1727937;28;20933;-71
2022/06/19 06:05:18;;;;;;;10.67;4.63;;;25.20;97.20;;;;;;1727930;28;20485;-71
2022/06/19 06:06:14;;;;;;;10.23;5.03;;;25.20;97.20;;;;;;1727962;28;20953;-71
2022/06/19 06:07:06;;;;;;;12.00;3.93;;;25.20;97.20;;;;;;1727668;28;20479;-72
2022/06/19 06:07:58;;;;;;;14.57;4.80;;;25.30;97.20;;;;;;1727852;28;20451;-72
2022/06/19 06:08:50;;;;;;;8.83;4.40;;;25.20;97.20;;;;;;1727980;28;20439;-72
2022/06/19 06:09:41;;;;;;;9.07;4.17;;;25.30;97.20;;;;;;1727194;28;20535;-75
2022/06/19 06:10:32;;;;;;;12.00;4.33;;;25.30;97.20;;;;;;1727778;28;20467;-73
2022/06/19 06:11:25;;;;;;;13.97;4.80;;;25.30;97.20;;;;;;1727917;28;20997;-73
2022/06/19 06:12:15;;;;;;;13.30;4.63;;;25.30;97.20;;;;;;1727895;28;20211;-73
2022/06/19 06:13:08;;;;;;;11.80;5.30;;;25.40;97.20;;;;;;1727926;28;20514;-73
2022/06/19 06:13:59;;;;;;;13.57;4.87;;;25.40;97.20;;;;;;1727905;28;20200;-73
2022/06/19 06:14:50;;;;;;;13.20;4.60;;;25.40;97.20;;;;;;1727937;28;20504;-73
2022/06/19 06:15:41;;;;;;;7.13;4.20;;;25.40;97.20;;;;;;1727941;28;20935;-73
2022/06/19 06:16:33;;;;;;;12.77;4.80;;;25.50;97.20;;;;;;1727364;28;20808;-72
2022/06/19 06:17:24;;;;;;;9.53;4.20;;;25.50;97.20;;;;;;1727834;28;20672;-73
2022/06/19 06:18:17;;;;;;;11.77;4.57;;;25.50;97.20;;;;;;1727864;28;20954;-73
2022/06/19 06:19:08;;;;;;;14.50;5.17;;;25.50;97.20;;;;;;1728023;28;20614;-73
2022/06/19 06:19:59;;;;;;;11.10;4.80;;;25.50;97.20;;;;;;1727872;28;20534;-73
2022/06/19 06:20:55;;;;;;;8.10;4.47;;;25.60;97.20;;;;;;1727963;28;20221;-72
2022/06/19 06:21:46;;;;;;;12.90;4.63;;;25.60;97.20;;;;;;1728050;28;20501;-73
2022/06/19 06:22:37;;;;;;;10.37;4.60;;;25.60;97.20;;;;;;1727963;28;20514;-73
2022/06/19 06:23:30;;;;;;;9.20;4.53;;;25.60;97.20;;;;;;1727890;28;20530;-73
2022/06/19 06:24:21;;;;;;;8.53;4.60;;;25.70;97.20;;;;;;1727857;28;20215;-73
2022/06/19 06:25:13;;;;;;;13.47;4.67;;;25.70;97.20;;;;;;1727905;28;21054;-73
2022/06/19 06:26:08;;;;;;;14.83;5.30;;;25.70;97.20;;;;;;1727727;28;20243;-73
2022/06/19 06:27:03;;;;;;;10.43;4.53;;;25.70;97.20;;;;;;1727573;28;20444;-73
2022/06/19 06:27:54;;;;;;;11.17;3.93;;;25.80;97.20;;;;;;1727721;28;20471;-73
2022/06/19 06:28:49;;;;;;;13.13;4.87;;;25.80;97.20;;;;;;1727559;28;20475;-73
2022/06/19 06:29:40;;;;;;;14.57;5.27;;;25.80;97.20;;;;;;1727895;28;20688;-73
2022/06/19 06:30:32;;;;;;;13.20;5.53;;;25.90;97.20;;;;;;1727738;28;20891;-73
2022/06/19 06:31:23;;;;;;;12.53;4.80;;;25.90;97.20;;;;;;1727842;28;20211;-73
2022/06/19 06:32:14;;;;;;;8.87;4.57;;;25.90;97.20;;;;;;1727800;28;20518;-73
2022/06/19 06:33:05;;;;;;;11.93;4.30;;;26.00;97.20;;;;;;1727876;28;20443;-73
2022/06/19 06:33:59;;;;;;;13.67;4.73;;;26.00;97.20;;;;;;1727867;28;20794;-73
2022/06/19 06:34:49;;;;;;;11.83;4.43;;;26.00;97.20;;;;;;1727853;28;20455;-73
2022/06/19 06:35:41;;;;;;;10.00;4.80;;;26.10;97.20;;;;;;1727820;28;20463;-73
2022/06/19 06:36:32;;;;;;;10.47;4.77;;;26.10;97.20;;;;;;1727486;28;20219;-71
2022/06/19 06:37:24;;;;;;;9.33;4.20;;;26.10;97.20;;;;;;1727816;28;20530;-72
2022/06/19 06:38:15;;;;;;;12.33;5.10;;;26.20;97.20;;;;;;1727682;28;20213;-73
2022/06/19 06:39:06;;;;;;;13.30;5.63;;;26.20;97.20;;;;;;1727827;28;20467;-73
2022/06/19 06:39:57;;;;;;;15.63;4.10;;;26.20;97.20;;;;;;1727694;28;20267;-73
2022/06/19 06:40:49;;;;;;;19.13;5.23;;;26.30;97.20;;;;;;1727838;28;20538;-73
2022/06/19 06:41:40;;;;;;;9.00;4.33;;;26.30;97.20;;;;;;1727750;28;20212;-72
2022/06/19 06:42:32;;;;;;;11.87;4.87;;;26.30;97.20;;;;;;1727825;28;20450;-73
2022/06/19 06:43:24;;;;;;;13.60;4.63;;;26.30;97.20;;;;;;1727727;28;20448;-73
2022/06/19 06:44:16;;;;;;;12.17;4.60;;;26.40;97.20;;;;;;1727751;28;20451;-73
2022/06/19 06:45:11;;;;;;;11.43;5.47;;;26.40;97.20;;;;;;1727527;28;20443;-72
2022/06/19 06:46:07;;;;;;;15.50;4.37;;;26.40;97.20;;;;;;1727657;28;20479;-73
2022/06/19 06:47:00;;;;;;;16.50;5.67;;;26.50;97.20;;;;;;1727425;28;20444;-73
2022/06/19 06:47:52;;;;;;;12.03;5.17;;;26.50;97.20;;;;;;1727719;28;20934;-73
2022/06/19 06:48:43;;;;;;;17.67;5.50;;;26.50;97.20;;;;;;1727691;28;20454;-72
2022/06/19 06:49:36;;;;;;;11.33;4.80;;;26.60;97.20;;;;;;1727574;28;20539;-72
2022/06/19 06:50:27;;;;;;;13.57;4.80;;;26.60;97.20;;;;;;1727725;28;20211;-73
2022/06/19 06:51:22;;;;;;;10.20;4.30;;;26.60;97.20;;;;;;1727745;28;20539;-73
2022/06/19 06:52:13;;;;;;;11.90;4.27;;;26.70;97.20;;;;;;1727697;28;20447;-73
2022/06/19 06:53:05;;;;;;;8.40;4.50;;;26.70;97.20;;;;;;1727702;28;20535;-72
2022/06/19 06:53:57;;;;;;;12.93;4.57;;;26.70;97.20;;;;;;1727598;28;20201;-73
2022/06/19 06:54:48;;;;;;;10.70;4.63;;;26.80;97.20;;;;;;1727760;28;20447;-73
2022/06/19 06:55:41;;;;;;;15.00;5.43;;;26.80;97.20;;;;;;1727771;28;20443;-73
2022/06/19 06:56:34;;;;;;;15.90;5.27;;;26.90;97.20;;;;;;1727660;28;20442;-73
2022/06/19 06:57:25;;;;;;;11.80;4.67;;;26.90;97.20;;;;;;1727625;28;20451;-73
2022/06/19 06:58:17;;;;;;;10.10;4.53;;;26.90;97.20;;;;;;1727594;28;20519;-73
2022/06/19 06:59:09;;;;;;;11.57;5.20;;;27.00;97.20;;;;;;1727720;28;20200;-73
2022/06/19 07:00:00;;;;;;;9.33;4.73;;;27.00;97.20;;;;;;1727678;28;20446;-73
2022/06/19 07:00:51;;;;;;;14.77;5.13;;;27.00;97.20;;;;;;1727571;28;20483;-73
2022/06/19 07:01:44;;;;;;;10.70;4.60;;;27.00;97.20;;;;;;1727637;28;20534;-73
2022/06/19 07:02:35;;;;;;;13.80;4.57;;;27.00;97.20;;;;;;1727686;28;20209;-73
2022/06/19 07:03:27;;;;;;;11.27;4.93;;;27.00;97.20;;;;;;1727612;28;20447;-73
2022/06/19 07:04:18;;;;;;;13.60;5.10;;;27.00;97.20;;;;;;1727592;28;20447;-73
2022/06/19 07:05:11;;;;;;;11.47;5.37;;;27.00;97.20;;;;;;1727662;28;20475;-73
2022/06/19 07:06:02;;;;;;;13.33;5.33;;;27.00;97.20;;;;;;1727557;28;20237;-73
2022/06/19 07:06:54;;;;;;;12.10;5.70;;;27.00;97.20;;;;;;1727288;28;20443;-73
2022/06/19 07:07:45;;;;;;;11.50;4.50;;;27.00;97.20;;;;;;1727673;28;20443;-73
2022/06/19 07:08:37;;;;;;;11.50;4.30;;;27.00;97.20;;;;;;1727603;28;20514;-73
2022/06/19 07:09:28;;;;;;;10.33;4.80;;;27.00;97.20;;;;;;1727721;28;20447;-73
2022/06/19 07:10:20;;;;;;;13.30;5.27;;;27.00;97.20;;;;;;1727524;28;20458;-72
2022/06/19 07:11:15;;;;;;;12.13;4.70;;;27.00;97.20;;;;;;1727568;28;20443;-73
2022/06/19 07:12:07;;;;;;;7.07;4.20;;;27.00;97.20;;;;;;1727666;28;20443;-73
2022/06/19 07:13:00;;;;;;;12.23;5.07;;;27.00;97.20;;;;;;1727561;28;20443;-72
2022/06/19 07:13:52;;;;;;;9.20;4.97;;;27.10;97.20;;;;;;1727575;28;20934;-73
2022/06/19 07:14:43;;;;;;;8.70;5.03;;;27.10;97.20;;;;;;1727602;28;20454;-72
2022/06/19 07:15:35;;;;;;;14.93;5.30;;;27.10;97.20;;;;;;1727658;28;20530;-72
2022/06/19 07:16:25;;;;;;;15.00;5.37;;;27.10;97.20;;;;;;1727492;28;20204;-72
2022/06/19 07:17:17;;;;;;;10.53;5.00;;;27.10;97.20;;;;;;1727233;28;20471;-73
2022/06/19 07:18:08;;;;;;;13.77;4.93;;;27.10;97.20;;;;;;1727500;28;20208;-73
2022/06/19 07:19:00;;;;;;;16.47;4.97;;;27.10;97.20;;;;;;1727532;28;20534;-73
2022/06/19 07:19:50;;;;;;;13.90;5.17;;;27.20;97.20;;;;;;1727545;28;20205;-73
2022/06/19 07:20:44;;;;;;;13.17;6.07;;;27.20;97.20;;;;;;1727529;28;20554;-73
2022/06/19 07:21:35;;;;;;;11.70;4.40;;;27.20;97.20;;;;;;1727443;28;20572;-73
2022/06/19 07:22:28;;;;;;;9.33;5.13;;;27.20;97.20;;;;;;1727504;28;20454;-73
2022/06/19 07:23:18;;;;;;;13.90;5.20;;;27.20;97.20;;;;;;1727511;28;20927;-73
2022/06/19 07:24:10;;;;;;;15.30;5.67;;;27.30;97.20;;;;;;1727588;28;21115;-73
2022/06/19 07:25:01;;;;;;;14.93;6.40;;;27.30;97.20;;;;;;1727583;28;20208;-73
2022/06/19 07:25:53;;;;;;;12.17;5.53;;;27.30;97.20;;;;;;1727392;28;20471;-73
2022/06/19 07:26:45;;;;;;;14.70;5.83;;;27.40;97.20;;;;;;1727286;28;20443;-73
2022/06/19 07:27:37;;;;;;;10.83;5.47;;;27.40;97.20;;;;;;1727554;28;20475;-73
2022/06/19 07:28:27;;;;;;;10.30;4.60;;;27.40;97.20;;;;;;1727072;28;20447;-73
2022/06/19 07:29:20;;;;;;;9.60;5.13;;;27.40;97.20;;;;;;1727416;28;20523;-73
2022/06/19 07:30:15;;;;;;;13.00;5.23;;;27.50;97.20;;;;;;1727458;28;20962;-74
2022/06/19 07:31:07;;;;;;;11.90;5.00;;;27.50;97.20;;;;;;1727642;28;20436;-74
2022/06/19 07:31:58;;;;;;;9.17;5.03;;;27.50;97.20;;;;;;1727292;28;20508;-75
2022/06/19 07:32:50;;;;;;;9.33;5.37;;;27.60;97.20;;;;;;1727297;28;20494;-73
2022/06/19 07:33:41;;;;;;;11.60;5.20;;;27.60;97.20;;;;;;1727341;28;20455;-73
2022/06/19 07:34:32;;;;;;;12.60;6.03;;;27.60;97.20;;;;;;1727075;28;20447;-73
2022/06/19 07:35:24;;;;;;;9.37;5.30;;;27.70;97.20;;;;;;1726929;28;20593;-74
2022/06/19 07:36:21;;;;;;;13.10;5.87;;;27.70;97.20;;;;;;1726876;28;20444;-73
2022/06/19 07:37:13;;;;;;;9.10;5.07;;;27.80;97.20;;;;;;1727273;28;20442;-75
2022/06/19 07:38:05;;;;;;;14.07;4.93;;;27.80;97.20;;;;;;1727445;28;20444;-73
2022/06/19 07:38:56;;;;;;;15.47;5.60;;;27.80;97.20;;;;;;1727521;28;20450;-73
2022/06/19 07:39:47;;;;;;;12.27;5.67;;;27.80;97.20;;;;;;1727496;28;20451;-73
2022/06/19 07:40:39;;;;;;;13.53;5.80;;;27.90;97.20;;;;;;1727438;28;20491;-73
2022/06/19 07:41:30;;;;;;;11.87;5.80;;;27.90;97.20;;;;;;1727552;28;20216;-74
2022/06/19 07:42:21;;;;;;;11.67;5.60;;;27.90;97.20;;;;;;1727570;28;20978;-73
2022/06/19 07:43:12;;;;;;;17.00;6.67;;;28.00;97.20;;;;;;1727473;28;20663;-73
2022/06/19 07:44:04;;;;;;;11.43;5.50;;;28.00;97.20;;;;;;1727474;28;20903;-73
2022/06/19 07:44:55;;;;;;;14.57;6.73;;;28.10;97.20;;;;;;1727405;28;20215;-73
2022/06/19 07:45:47;;;;;;;13.93;6.40;;;28.10;97.20;;;;;;1727650;28;20510;-73
2022/06/19 07:50:09;;;;;;;12.10;5.43;;;28.10;97.20;;;;;;1727074;28;20599;-73
2022/06/19 07:50:13;;;;;;;17.10;6.20;;;28.20;97.20;;;;;;1727610;28;20968;-73
2022/06/19 07:51:05;;;;;;;16.47;7.30;;;28.30;97.20;;;;;;1727470;28;21030;-73
2022/06/19 07:51:57;;;;;;;10.53;6.47;;;28.30;97.20;;;;;;1727461;28;20442;-73
2022/06/19 07:52:51;;;;;;;12.33;5.83;;;28.40;97.20;;;;;;1727459;28;20519;-74
2022/06/19 07:53:42;;;;;;;14.53;6.80;;;28.40;97.20;;;;;;1727344;28;20498;-73
2022/06/19 07:54:34;;;;;;;13.53;6.40;;;28.40;97.20;;;;;;1727078;28;20443;-73
2022/06/19 07:55:27;;;;;;;9.60;6.10;;;28.40;97.20;;;;;;1726373;28;20448;-73
2022/06/19 07:56:18;;;;;;;12.00;5.80;;;28.50;97.20;;;;;;1725044;28;20519;-73
2022/06/19 07:57:09;;;;;;;10.83;7.37;;;28.50;97.20;;;;;;1725346;28;20450;-73
2022/06/19 07:58:02;;;;;;;14.07;7.20;;;28.50;97.20;;;;;;1720405;28;20520;-73
2022/06/19 07:58:53;;;;;;;13.13;6.77;;;28.60;97.20;;;;;;1726520;28;20927;-74
2022/06/19 07:59:44;;;;;;;10.50;6.43;;;28.60;97.20;;;;;;1720161;28;20951;-72
2022/06/19 08:00:37;;;;;;;14.63;7.53;;;28.60;97.20;;;;;;1721754;28;20468;-72
2022/06/19 08:01:29;;;;;;;11.43;6.77;;;28.70;97.20;;;;;;1721994;28;20443;-73
2022/06/19 08:02:20;;;;;;;12.77;6.90;;;28.70;97.20;;;;;;1720002;28;20452;-73
2022/06/19 08:03:12;;;;;;;13.83;7.33;;;28.80;97.20;;;;;;1720330;28;21037;-73
2022/06/19 08:04:03;;;;;;;13.83;7.90;;;28.80;97.20;;;;;;1720045;28;20216;-73
2022/06/19 08:04:54;;;;;;;11.40;7.03;;;28.80;97.20;;;;;;1724946;28;20547;-73
2022/06/19 08:05:46;;;;;;;9.83;6.83;;;28.90;97.20;;;;;;1725180;28;20200;-73
2022/06/19 08:06:38;;;;;;;12.03;7.23;;;28.90;97.20;;;;;;1719629;28;20523;-73
2022/06/19 08:07:30;;;;;;;10.27;6.97;;;28.90;97.20;;;;;;1720109;28;20459;-73
2022/06/19 08:08:25;;;;;;;14.77;8.63;;;29.00;97.20;;;;;;1722439;28;20451;-73
2022/06/19 08:09:16;;;;;;;10.60;7.10;;;29.00;97.20;;;;;;1726996;28;20448;-73
2022/06/19 08:10:09;;;;;;;11.80;7.30;;;29.00;97.20;;;;;;1722698;28;20475;-73
2022/06/19 08:11:02;;;;;;;11.93;7.30;;;29.10;97.20;;;;;;1721234;28;20200;-73
2022/06/19 08:11:53;;;;;;;10.40;8.47;;;29.10;97.20;;;;;;1722345;28;20448;-73
2022/06/19 08:12:46;;;;;;;13.27;8.23;;;29.10;97.20;;;;;;1726827;28;20443;-73
2022/06/19 08:13:38;;;;;;;9.27;7.27;;;29.20;97.20;;;;;;1725927;28;20440;-73
2022/06/19 08:14:29;;;;;;;9.00;7.70;;;29.20;97.20;;;;;;1726237;28;20443;-73
2022/06/19 08:15:21;;;;;;;10.20;7.70;;;29.20;97.20;;;;;;1726289;28;20479;-73
2022/06/19 08:16:12;;;;;;;8.97;7.40;;;29.30;97.20;;;;;;1720339;28;20205;-72
2022/06/19 08:17:05;;;;;;;10.40;8.23;;;29.30;97.20;;;;;;1720228;28;20520;-73
2022/06/19 08:17:56;;;;;;;11.33;6.90;;;29.30;97.20;;;;;;1725817;28;20687;-73
2022/06/19 08:18:48;;;;;;;17.37;8.97;;;29.40;97.20;;;;;;1725962;28;20877;-73
2022/06/19 08:19:39;;;;;;;12.33;8.73;;;29.40;97.20;;;;;;1725452;28;20446;-73
2022/06/19 08:20:31;;;;;;;16.50;10.57;;;29.40;97.20;;;;;;1725761;28;20550;-73
2022/06/19 08:21:21;;;;;;;11.60;8.27;;;29.40;97.20;;;;;;1726160;28;20234;-73
2022/06/19 08:22:13;;;;;;;16.30;8.50;;;29.50;97.20;;;;;;1726377;28;20450;-73
2022/06/19 08:23:05;;;;;;;14.57;8.33;;;29.50;97.20;;;;;;1726039;28;20208;-73
2022/06/19 08:23:57;;;;;;;12.63;8.63;;;29.50;97.20;;;;;;1725457;28;20480;-73
2022/06/19 08:24:48;;;;;;;13.30;9.00;;;29.60;97.20;;;;;;1725924;28;20451;-73
2022/06/19 08:25:40;;;;;;;12.40;8.87;;;29.60;97.20;;;;;;1726121;28;20530;-75
2022/06/19 08:26:31;;;;;;;18.33;9.67;;;29.70;97.20;;;;;;1726033;28;20580;-73
2022/06/19 08:27:23;;;;;;;11.17;9.03;;;29.70;97.20;;;;;;1725687;28;20907;-73
2022/06/19 08:28:16;;;;;;;15.27;9.37;;;29.70;97.20;;;;;;1724388;28;20451;-73
2022/06/19 08:29:08;;;;;;;13.93;10.53;;;29.80;97.20;;;;;;1725846;28;20447;-74
2022/06/19 08:29:59;;;;;;;11.63;9.03;;;29.80;97.20;;;;;;1724420;28;20935;-73
2022/06/19 08:30:51;;;;;;;11.93;9.80;;;29.80;97.20;;;;;;1725863;28;20902;-73
2022/06/19 08:31:42;;;;;;;20.30;9.13;;;29.90;97.20;;;;;;1725195;28;20213;-73
2022/06/19 08:32:33;;;;;;;13.57;10.33;;;29.90;97.20;;;;;;1725441;28;20530;-73
2022/06/19 08:33:25;;;;;;;11.80;8.93;;;29.90;97.20;;;;;;1725854;28;20462;-73
2022/06/19 08:34:16;;;;;;;12.70;9.67;;;29.90;97.20;;;;;;1726782;28;20454;-74
2022/06/19 08:35:08;;;;;;;12.67;10.10;;;30.00;97.20;;;;;;1726761;28;20535;-74
2022/06/19 08:36:06;;;;;;;16.40;10.07;;;30.00;97.20;;;;;;1727137;28;20197;-74
2022/06/19 08:36:58;;;;;;;14.20;8.80;;;30.00;97.20;;;;;;1726564;28;20431;-74
2022/06/19 08:37:54;;;;;;;13.03;9.37;;;30.00;97.20;;;;;;1727257;28;20474;-74
2022/06/19 08:38:49;;;;;;;13.07;8.80;;;30.10;97.20;;;;;;1725472;28;20970;-74
2022/06/19 08:39:41;;;;;;;15.53;9.37;;;30.10;97.20;;;;;;1726253;28;20498;-74
2022/06/19 08:40:53;;;;;;;12.80;8.53;;;30.10;97.20;;;;;;1726631;28;20455;-75
2022/06/19 08:42:13;;;;;;;12.13;9.00;;;30.10;97.20;;;;;;1726339;28;20798;-74
2022/06/19 08:43:20;;;;;;;12.10;9.73;;;30.20;97.20;;;;;;1726023;28;20545;-74
2022/06/19 08:44:33;;;;;;;16.10;9.90;;;30.20;97.20;;;;;;1726134;28;20522;-74
2022/06/19 08:45:37;;;;;;;12.73;10.07;;;30.20;97.20;;;;;;1726060;28;20442;-74
2022/06/19 08:46:40;;;;;;;11.07;9.83;;;30.30;97.20;;;;;;1725136;28;20452;-74
2022/06/19 08:47:50;;;;;;;11.67;9.00;;;30.30;97.20;;;;;;1725617;28;20831;-74
2022/06/19 08:49:11;;;;;;;10.23;8.90;;;30.30;97.20;;;;;;1721649;28;20446;-74
2022/06/19 08:50:10;;;;;;;15.87;10.40;;;30.30;97.20;;;;;;1727687;28;20451;-74
2022/06/19 08:51:08;;;;;;;10.67;9.43;;;30.40;97.20;;;;;;1727913;28;20439;-74
2022/06/19 08:52:08;;;;;;;11.60;9.90;;;30.40;97.20;;;;;;1727764;28;20439;-75
2022/06/19 08:53:14;;;;;;;12.30;10.70;;;30.40;97.20;;;;;;1727905;28;20466;-74
2022/06/19 08:54:22;;;;;;;11.57;10.27;;;30.50;97.20;;;;;;1724278;28;20447;-73
2022/06/19 08:55:25;;;;;;;13.77;10.40;;;30.50;97.20;;;;;;1727118;28;20447;-73
2022/06/19 08:56:31;;;;;;;12.67;9.80;;;30.60;97.20;;;;;;1721283;28;20486;-73
2022/06/19 08:57:33;;;;;;;14.30;10.40;;;30.60;97.20;;;;;;1727452;28;20978;-74
2022/06/19 08:58:32;;;;;;;15.63;10.17;;;30.60;97.20;;;;;;1723258;28;20449;-74
2022/06/19 08:59:33;;;;;;;14.73;10.67;;;30.70;97.20;;;;;;1723664;28;20444;-74
2022/06/19 09:00:29;;;;;;;15.63;10.33;;;30.70;97.20;;;;;;1728328;28;20459;-73
2022/06/19 09:01:29;;;;;;;13.53;10.73;;;30.70;97.20;;;;;;1728487;28;20431;-74
2022/06/19 09:02:31;;;;;;;14.13;9.97;;;30.80;97.20;;;;;;1728560;28;20454;-73
2022/06/19 09:05:36;;;;;;;14.00;11.50;;;30.80;97.20;;;;;;1729243;28;20439;-73
2022/06/19 09:06:20;;;;;;;13.10;10.93;;;30.90;97.20;;;;;;1725373;28;20798;-74
2022/06/19 09:07:23;;;;;;;12.87;9.80;;;30.90;97.20;;;;;;1721438;28;20854;-74
2022/06/19 09:08:49;;;;;;;11.53;10.30;;;30.90;97.20;;;;;;1728126;28;20928;-74
2022/06/19 09:09:56;;;;;;;14.33;10.97;;;31.00;97.20;;;;;;1728402;28;20859;-74
2022/06/19 09:10:51;;;;;;;13.13;10.87;;;31.00;97.20;;;;;;1728357;28;20463;-74
2022/06/19 09:11:56;;;;;;;13.87;12.43;;;31.10;97.20;;;;;;1728378;28;20454;-75
2022/06/19 09:13:12;;;;;;;14.80;10.83;;;31.10;97.20;;;;;;1728061;28;20435;-75
2022/06/19 09:14:15;;;;;;;13.50;11.53;;;31.10;97.20;;;;;;1728277;28;20443;-75
2022/06/19 09:15:12;;;;;;;14.30;11.43;;;31.20;97.20;;;;;;1727007;28;20439;-74
2022/06/19 09:16:13;;;;;;;12.83;11.50;;;31.20;97.20;;;;;;1721438;28;20444;-75
2022/06/19 09:17:11;;;;;;;20.20;12.00;;;31.20;97.20;;;;;;1721406;28;20441;-74
2022/06/19 09:18:05;;;;;;;19.83;11.43;;;31.20;97.20;;;;;;1723955;28;20437;-75
2022/06/19 09:19:05;;;;;;;11.93;10.73;;;31.30;97.20;;;;;;1727874;28;20440;-74
2022/06/19 09:20:05;;;;;;;13.53;11.83;;;31.30;97.20;;;;;;1720985;28;20437;-74
2022/06/19 09:21:06;;;;;;;15.30;12.20;;;31.40;97.20;;;;;;1723177;28;20492;-75
2022/06/19 09:22:12;;;;;;;16.30;11.37;;;31.40;97.20;;;;;;1726192;28;20511;-75
2022/06/19 09:23:36;;;;;;;16.63;10.93;;;31.50;97.20;;;;;;1721085;28;20441;-75
2022/06/19 09:24:43;;;;;;;15.70;10.90;;;31.50;97.20;;;;;;1722653;28;20447;-75
2022/06/19 09:25:45;;;;;;;13.77;10.87;;;31.60;97.20;;;;;;1725524;28;20447;-75
2022/06/19 09:26:43;;;;;;;16.40;10.63;;;31.60;97.20;;;;;;1728002;28;20929;-75
2022/06/19 09:27:44;;;;;;;15.73;10.63;;;31.60;97.20;;;;;;1726518;28;21041;-76
2022/06/19 09:28:44;;;;;;;14.20;10.73;;;31.70;97.20;;;;;;1721511;28;20520;-76
2022/06/19 09:29:38;;;;;;;13.10;10.70;;;31.70;97.20;;;;;;1721671;28;20448;-75
2022/06/19 09:30:35;;;;;;;14.80;10.53;;;31.70;97.20;;;;;;1721387;28;20451;-74
2022/06/19 09:31:31;;;;;;;13.43;10.37;;;31.80;97.20;;;;;;1721543;28;20460;-74
2022/06/19 09:32:31;;;;;;;15.00;11.10;;;31.80;97.20;;;;;;1721563;28;20507;-74
2022/06/19 09:33:26;;;;;;;13.00;10.27;;;31.80;97.20;;;;;;1725351;28;20955;-73
2022/06/19 09:34:22;;;;;;;15.47;10.53;;;31.90;97.20;;;;;;1728147;28;20443;-73
2022/06/19 09:35:18;;;;;;;17.17;10.60;;;31.90;97.20;;;;;;1727928;28;20459;-72
2022/06/19 09:36:18;;;;;;;14.40;9.60;;;31.90;97.20;;;;;;1728217;28;20462;-72
2022/06/19 09:37:14;;;;;;;15.23;10.17;;;32.00;96.60;;;;;;1727369;28;20444;-72
2022/06/19 09:38:11;;;;;;;14.10;9.57;;;32.00;96.20;;;;;;1721410;28;20470;-72
2022/06/19 09:39:07;;;;;;;10.70;9.53;;;32.00;95.30;;;;;;1720958;28;20663;-72
2022/06/19 09:40:05;;;;;;;15.30;10.17;;;32.00;95.20;;;;;;1720918;28;20511;-72
2022/06/19 09:41:02;;;;;;;15.47;9.70;;;32.10;95.70;;;;;;1721434;28;20831;-72